createdAt,value
2018-05-06T00:01:59.363Z,67.85
2018-05-06T00:04:26.951Z,67.74
2018-05-06T00:06:55.300Z,67.70
2018-05-06T00:09:22.984Z,67.74
2018-05-06T00:11:50.559Z,68.21
2018-05-06T00:14:18.144Z,67.36
2018-05-06T00:16:45.880Z,68.03
2018-05-06T00:19:13.755Z,67.26
2018-05-06T00:21:41.319Z,66.94
2018-05-06T00:24:09.094Z,67.48
2018-05-06T00:26:36.685Z,67.41
2018-05-06T00:29:04.279Z,67.40
2018-05-06T00:31:32.094Z,67.77
2018-05-06T00:33:59.737Z,67.52
2018-05-06T00:36:27.307Z,67.19
2018-05-06T00:38:54.936Z,66.69
2018-05-06T00:41:22.615Z,67.13
2018-05-06T00:43:50.265Z,66.54
2018-05-06T00:46:18.682Z,66.58
2018-05-06T00:48:46.360Z,65.58
2018-05-06T00:51:13.957Z,65.64
2018-05-06T00:53:41.758Z,66.38
2018-05-06T00:56:09.341Z,66.22
2018-05-06T00:58:36.968Z,66.11
2018-05-06T01:01:04.605Z,66.65
2018-05-06T01:03:32.254Z,66.83
2018-05-06T01:05:59.901Z,66.72
2018-05-06T01:08:27.902Z,67.08
2018-05-06T01:10:55.506Z,67.07
2018-05-06T01:13:23.088Z,67.56
2018-05-06T01:15:50.708Z,67.55
2018-05-06T01:18:18.316Z,67.48
2018-05-06T01:20:45.884Z,67.66
2018-05-06T01:23:14.322Z,67.89
2018-05-06T01:25:41.977Z,67.83
2018-05-06T01:28:10.544Z,67.96
2018-05-06T01:30:38.328Z,67.11
2018-05-06T01:33:05.896Z,67.35
2018-05-06T01:35:33.540Z,67.15
2018-05-06T01:38:01.169Z,66.70
2018-05-06T01:40:28.777Z,67.04
2018-05-06T01:42:56.349Z,67.17
2018-05-06T01:45:24.068Z,67.44
2018-05-06T01:47:51.704Z,67.05
2018-05-06T01:50:19.279Z,67.14
2018-05-06T01:52:47.914Z,67.21
2018-05-06T01:55:15.584Z,67.52
2018-05-06T01:57:43.190Z,67.96
2018-05-06T02:00:11.876Z,67.99
2018-05-06T02:02:39.464Z,67.94
2018-05-06T02:05:07.096Z,67.57
2018-05-06T02:07:34.715Z,67.68
2018-05-06T02:10:02.359Z,68.06
2018-05-06T02:12:30.686Z,68.92
2018-05-06T02:14:58.400Z,69.17
2018-05-06T02:17:25.976Z,69.11
2018-05-06T02:19:53.559Z,69.15
2018-05-06T02:22:21.180Z,69.64
2018-05-06T02:24:48.749Z,69.94
2018-05-06T02:27:16.377Z,70.03
2018-05-06T02:29:43.992Z,70.30
2018-05-06T02:32:11.663Z,70.70
2018-05-06T02:34:39.257Z,70.65
2018-05-06T02:37:07.040Z,70.93
2018-05-06T02:39:34.656Z,71.39
2018-05-06T02:42:02.240Z,71.75
2018-05-06T02:44:29.928Z,72.08
2018-05-06T02:46:57.493Z,72.01
2018-05-06T02:49:25.964Z,72.11
2018-05-06T02:51:53.680Z,72.28
2018-05-06T02:54:21.265Z,72.32
2018-05-06T02:56:49.978Z,72.33
2018-05-06T02:59:17.711Z,72.01
2018-05-06T03:01:45.364Z,71.79
2018-05-06T03:04:13.012Z,72.01
2018-05-06T03:06:40.728Z,71.76
2018-05-06T03:09:08.313Z,71.79
2018-05-06T03:11:35.895Z,71.74
2018-05-06T03:14:03.600Z,71.59
2018-05-06T03:16:31.192Z,71.96
2018-05-06T03:18:59.399Z,72.20
2018-05-06T03:21:27.008Z,72.40
2018-05-06T03:23:54.640Z,72.50
2018-05-06T03:26:22.231Z,72.10
2018-05-06T03:28:49.851Z,72.52
2018-05-06T03:31:17.455Z,72.41
2018-05-06T03:33:45.032Z,72.16
2018-05-06T03:36:12.812Z,72.39
2018-05-06T03:38:40.384Z,72.21
2018-05-06T03:41:07.970Z,72.42
2018-05-06T03:43:35.627Z,72.43
2018-05-06T03:46:03.308Z,72.02
2018-05-06T03:48:30.883Z,71.91
2018-05-06T03:50:59.496Z,71.46
2018-05-06T03:53:27.127Z,71.75
2018-05-06T03:56:16.368Z,70.63
2018-05-06T03:58:55.932Z,68.75
2018-05-06T04:01:25.313Z,69.45
2018-05-06T04:03:52.893Z,69.30
2018-05-06T04:06:21.103Z,67.57
2018-05-06T04:08:48.831Z,66.39
2018-05-06T04:11:16.472Z,65.90
2018-05-06T04:13:44.132Z,65.06
2018-05-06T04:16:12.039Z,64.55
2018-05-06T04:18:39.639Z,64.01
2018-05-06T04:21:07.264Z,64.24
2018-05-06T04:23:34.988Z,63.18
2018-05-06T04:26:02.560Z,63.86
2018-05-06T04:28:30.200Z,63.89
2018-05-06T04:30:57.938Z,63.41
2018-05-06T04:33:25.510Z,63.82
2018-05-06T04:35:53.809Z,63.74
2018-05-06T04:38:21.424Z,63.50
2018-05-06T04:40:49.012Z,64.27
2018-05-06T04:43:16.643Z,64.65
2018-05-06T04:45:44.295Z,64.02
2018-05-06T04:48:11.888Z,63.21
2018-05-06T04:50:40.418Z,63.52
2018-05-06T04:53:08.031Z,62.78
2018-05-06T04:55:35.631Z,62.53
2018-05-06T04:58:03.210Z,61.41
2018-05-06T05:00:30.976Z,63.97
2018-05-06T05:02:58.612Z,63.67
2018-05-06T05:05:26.197Z,63.82
2018-05-06T05:07:53.811Z,63.51
2018-05-06T05:10:21.381Z,63.55
2018-05-06T05:12:48.968Z,65.95
2018-05-06T05:15:16.785Z,65.09
2018-05-06T05:17:44.370Z,63.43
2018-05-06T05:20:12.048Z,64.77
2018-05-06T05:22:39.673Z,65.89
2018-05-06T05:25:07.311Z,63.21
2018-05-06T05:27:34.958Z,64.84
2018-05-06T05:30:02.692Z,62.25
2018-05-06T05:32:30.336Z,62.11
2018-05-06T05:34:57.924Z,63.68
2018-05-06T05:37:25.543Z,61.90
2018-05-06T05:39:53.672Z,61.73
2018-05-06T05:42:21.266Z,60.71
2018-05-06T05:44:48.897Z,60.91
2018-05-06T05:47:16.479Z,58.51
2018-05-06T05:49:44.060Z,59.00
2018-05-06T05:52:11.834Z,60.26
2018-05-06T05:54:39.419Z,61.22
2018-05-06T05:57:07.004Z,58.98
2018-05-06T05:59:34.719Z,59.79
2018-05-06T06:02:02.500Z,56.90
2018-05-06T06:04:30.128Z,59.49
2018-05-06T06:06:57.763Z,59.83
2018-05-06T06:09:25.360Z,58.19
2018-05-06T06:11:52.983Z,59.38
2018-05-06T06:14:20.711Z,59.88
2018-05-06T06:16:48.348Z,57.89
2018-05-06T06:19:15.993Z,53.32
2018-05-06T06:21:43.740Z,57.50
2018-05-06T06:24:11.344Z,51.85
2018-05-06T06:26:38.915Z,52.45
2018-05-06T06:29:06.550Z,49.31
2018-05-06T06:31:34.135Z,48.84
2018-05-06T06:34:01.771Z,50.08
2018-05-06T06:36:29.416Z,49.74
2018-05-06T06:38:57.058Z,49.42
2018-05-06T06:41:24.683Z,52.87
2018-05-06T06:43:52.493Z,53.57
2018-05-06T06:46:20.081Z,51.49
2018-05-06T06:48:47.755Z,51.45
2018-05-06T06:51:15.374Z,48.01
2018-05-06T06:53:43.712Z,47.31
2018-05-06T06:56:11.347Z,50.80
2018-05-06T06:58:38.970Z,48.16
2018-05-06T07:01:06.602Z,44.71
2018-05-06T07:03:34.247Z,45.95
2018-05-06T07:06:01.935Z,44.32
2018-05-06T07:08:29.507Z,43.29
2018-05-06T07:10:57.191Z,41.99
2018-05-06T07:13:24.897Z,42.70
2018-05-06T07:15:52.492Z,41.94
2018-05-06T07:18:20.170Z,41.60
2018-05-06T07:20:47.888Z,41.21
2018-05-06T07:23:15.477Z,42.85
2018-05-06T07:25:43.112Z,39.63
2018-05-06T07:28:11.287Z,41.26
2018-05-06T07:30:39.636Z,41.27
2018-05-06T07:33:07.232Z,41.55
2018-05-06T07:35:34.847Z,38.68
2018-05-06T07:38:02.490Z,39.48
2018-05-06T07:40:30.064Z,40.20
2018-05-06T07:42:57.679Z,40.22
2018-05-06T07:45:25.317Z,36.95
2018-05-06T07:47:52.897Z,37.31
2018-05-06T07:50:20.641Z,37.61
2018-05-06T07:52:48.860Z,36.19
2018-05-06T07:55:17.443Z,36.04
2018-05-06T07:57:45.077Z,35.33
2018-05-06T08:00:12.651Z,36.34
2018-05-06T08:02:40.259Z,36.18
2018-05-06T08:05:09.848Z,35.43
2018-05-06T08:07:37.478Z,33.76
2018-05-06T08:10:05.680Z,33.75
2018-05-06T08:12:33.468Z,33.10
2018-05-06T08:15:01.044Z,32.02
2018-05-06T08:17:28.624Z,33.61
2018-05-06T08:19:56.275Z,35.91
2018-05-06T08:22:23.865Z,33.41
2018-05-06T08:24:51.447Z,33.06
2018-05-06T08:27:19.150Z,30.92
2018-05-06T08:29:46.737Z,33.86
2018-05-06T08:32:14.377Z,34.98
2018-05-06T08:34:42.053Z,31.95
2018-05-06T08:37:09.631Z,31.82
2018-05-06T08:39:37.203Z,33.12
2018-05-06T08:42:04.950Z,33.04
2018-05-06T08:44:32.527Z,33.61
2018-05-06T08:47:00.112Z,33.36
2018-05-06T08:49:27.849Z,33.51
2018-05-06T08:51:55.424Z,32.87
2018-05-06T08:54:23.080Z,31.65
2018-05-06T08:56:50.776Z,32.59
2018-05-06T08:59:18.433Z,33.44
2018-05-06T09:01:46.034Z,32.71
2018-05-06T09:04:13.768Z,32.27
2018-05-06T09:06:42.061Z,31.45
2018-05-06T09:09:09.648Z,33.26
2018-05-06T09:11:37.332Z,33.00
2018-05-06T09:14:04.984Z,31.31
2018-05-06T09:16:32.590Z,32.94
2018-05-06T09:19:00.350Z,32.00
2018-05-06T09:21:27.943Z,33.10
2018-05-06T09:23:55.513Z,32.97
2018-05-06T09:26:23.202Z,32.64
2018-05-06T09:28:50.884Z,32.58
2018-05-06T09:31:18.460Z,32.03
2018-05-06T09:33:46.200Z,33.02
2018-05-06T09:36:13.835Z,33.47
2018-05-06T09:38:41.479Z,32.28
2018-05-06T09:41:09.240Z,33.59
2018-05-06T09:43:36.847Z,32.84
2018-05-06T09:46:04.447Z,31.38
2018-05-06T09:48:32.144Z,33.13
2018-05-06T09:50:59.720Z,31.85
2018-05-06T09:53:27.287Z,32.03
2018-05-06T09:55:55.008Z,33.73
2018-05-06T09:58:22.649Z,33.41
2018-05-06T10:00:50.455Z,32.12
2018-05-06T10:03:18.180Z,34.79
2018-05-06T10:05:45.755Z,33.67
2018-05-06T10:08:13.691Z,32.66
2018-05-06T10:10:41.420Z,33.59
2018-05-06T10:13:09.003Z,33.75
2018-05-06T10:15:36.657Z,33.58
2018-05-06T10:18:04.374Z,30.69
2018-05-06T10:20:32.027Z,30.83
2018-05-06T10:22:59.653Z,31.66
2018-05-06T10:25:27.257Z,32.24
2018-05-06T10:27:54.899Z,30.67
2018-05-06T10:30:22.534Z,31.36
2018-05-06T10:32:50.171Z,31.20
2018-05-06T10:35:17.812Z,31.74
2018-05-06T10:37:45.389Z,30.83
2018-05-06T10:40:13.184Z,30.97
2018-05-06T10:42:40.769Z,33.53
2018-05-06T10:45:08.419Z,31.68
2018-05-06T10:47:36.032Z,33.51
2018-05-06T10:50:03.675Z,34.13
2018-05-06T10:52:31.281Z,32.44
2018-05-06T10:54:59.755Z,34.60
2018-05-06T10:57:27.420Z,32.74
2018-05-06T10:59:55.007Z,31.11
2018-05-06T11:02:22.630Z,31.37
2018-05-06T11:04:50.215Z,32.64
2018-05-06T11:07:17.827Z,32.50
2018-05-06T11:09:45.747Z,36.38
2018-05-06T11:12:13.337Z,40.98
2018-05-06T11:14:40.920Z,52.04
2018-05-06T11:17:08.563Z,51.61
2018-05-06T11:19:36.185Z,55.12
2018-05-06T11:22:03.841Z,58.79
2018-05-06T11:24:31.595Z,61.44
2018-05-06T11:26:59.185Z,60.87
2018-05-06T11:29:26.838Z,62.83
2018-05-06T11:31:54.500Z,63.61
2018-05-06T11:34:22.149Z,65.71
2018-05-06T11:36:49.723Z,62.85
2018-05-06T11:39:17.448Z,62.24
2018-05-06T11:41:45.031Z,62.67
2018-05-06T11:44:12.620Z,61.99
2018-05-06T11:46:40.310Z,65.43
2018-05-06T11:49:07.881Z,62.30
2018-05-06T11:51:35.472Z,63.19
2018-05-06T11:54:03.095Z,64.43
2018-05-06T11:56:30.656Z,64.13
2018-05-06T11:58:58.245Z,63.28
2018-05-06T12:01:26.061Z,63.27
2018-05-06T12:03:53.735Z,65.36
2018-05-06T12:06:21.393Z,62.32
2018-05-06T12:08:49.273Z,62.92
2018-05-06T12:11:16.917Z,61.34
2018-05-06T12:13:44.504Z,63.59
2018-05-06T12:16:12.128Z,63.16
2018-05-06T12:18:39.701Z,58.53
2018-05-06T12:21:07.299Z,56.85
2018-05-06T12:23:34.952Z,57.68
2018-05-06T12:26:02.597Z,56.70
2018-05-06T12:28:30.374Z,58.17
2018-05-06T12:30:58.228Z,63.15
2018-05-06T12:33:25.909Z,62.38
2018-05-06T12:35:53.650Z,61.51
2018-05-06T12:38:21.375Z,63.60
2018-05-06T12:40:48.953Z,63.69
2018-05-06T12:43:16.584Z,65.36
2018-05-06T12:45:44.212Z,64.51
2018-05-06T12:48:11.860Z,66.30
2018-05-06T12:50:39.494Z,65.47
2018-05-06T12:53:07.130Z,66.22
2018-05-06T12:55:34.707Z,65.70
2018-05-06T12:58:02.306Z,65.17
2018-05-06T13:00:30.019Z,65.07
2018-05-06T13:02:57.647Z,64.53
2018-05-06T13:05:25.280Z,65.46
2018-05-06T13:07:52.983Z,65.88
2018-05-06T13:10:20.701Z,67.65
2018-05-06T13:12:48.432Z,70.56
2018-05-06T13:15:16.137Z,69.39
2018-05-06T13:17:43.711Z,70.27
2018-05-06T13:20:11.381Z,66.86
2018-05-06T13:22:39.101Z,67.02
2018-05-06T13:25:06.683Z,63.46
2018-05-06T13:27:34.321Z,64.97
2018-05-06T13:30:02.119Z,62.03
2018-05-06T13:32:30.491Z,65.74
2018-05-06T13:34:58.161Z,64.17
2018-05-06T13:37:25.831Z,65.38
2018-05-06T13:39:53.482Z,64.14
2018-05-06T13:42:21.069Z,64.50
2018-05-06T13:44:48.795Z,64.94
2018-05-06T13:47:16.395Z,66.38
2018-05-06T13:49:43.987Z,68.28
2018-05-06T13:52:11.828Z,69.19
2018-05-06T13:54:39.468Z,69.48
2018-05-06T13:57:07.076Z,69.28
2018-05-06T13:59:34.790Z,70.25
2018-05-06T14:02:03.179Z,70.30
2018-05-06T14:04:30.984Z,67.86
2018-05-06T14:06:58.708Z,66.92
2018-05-06T14:09:26.289Z,67.62
2018-05-06T14:11:53.856Z,66.47
2018-05-06T14:14:22.588Z,67.20
2018-05-06T14:16:50.155Z,63.15
2018-05-06T14:19:17.807Z,65.07
2018-05-06T14:21:45.449Z,63.13
2018-05-06T14:24:13.040Z,61.91
2018-05-06T14:26:40.688Z,60.15
2018-05-06T14:29:08.380Z,58.59
2018-05-06T14:31:35.951Z,60.51
2018-05-06T14:34:04.359Z,60.65
2018-05-06T14:36:31.974Z,59.56
2018-05-06T14:38:59.608Z,58.39
2018-05-06T14:41:27.256Z,56.74
2018-05-06T14:43:54.864Z,56.21
2018-05-06T14:46:34.226Z,57.12
2018-05-06T14:49:01.851Z,58.13
2018-05-06T14:51:29.428Z,55.86
2018-05-06T14:53:56.987Z,59.18
2018-05-06T14:56:25.350Z,60.78
2018-05-06T14:58:52.979Z,62.64
2018-05-06T15:01:20.580Z,63.02
2018-05-06T15:03:48.253Z,63.92
2018-05-06T15:06:15.860Z,64.33
2018-05-06T15:08:43.495Z,64.24
2018-05-06T15:11:11.205Z,64.17
2018-05-06T15:13:38.854Z,63.47
2018-05-06T15:16:06.800Z,64.54
2018-05-06T15:18:34.576Z,66.54
2018-05-06T15:21:02.172Z,68.56
2018-05-06T15:23:29.809Z,72.95
2018-05-06T15:25:57.510Z,72.79
2018-05-06T15:28:25.083Z,74.79
2018-05-06T15:30:52.668Z,76.34
2018-05-06T15:33:20.420Z,77.48
2018-05-06T15:35:48.004Z,77.30
2018-05-06T15:38:16.405Z,78.62
2018-05-06T15:40:44.043Z,78.17
2018-05-06T15:43:11.662Z,77.71
2018-05-06T15:45:39.320Z,78.29
2018-05-06T15:48:07.032Z,78.58
2018-05-06T15:50:34.860Z,78.44
2018-05-06T15:53:02.454Z,77.63
2018-05-06T15:55:30.183Z,77.84
2018-05-06T15:57:57.806Z,76.53
2018-05-06T16:00:25.391Z,76.42
2018-05-06T16:03:05.055Z,76.06
2018-05-06T16:05:32.637Z,76.25
2018-05-06T16:08:00.292Z,76.76
2018-05-06T16:10:28.016Z,73.41
2018-05-06T16:12:55.657Z,74.69
2018-05-06T16:15:23.329Z,73.91
2018-05-06T16:17:51.061Z,74.13
2018-05-06T16:20:18.651Z,71.92
2018-05-06T16:22:46.250Z,71.39
2018-05-06T16:25:13.932Z,70.37
2018-05-06T16:27:41.580Z,71.75
2018-05-06T16:30:09.155Z,71.09
2018-05-06T16:32:38.901Z,68.70
2018-05-06T16:35:06.496Z,68.41
2018-05-06T16:37:34.169Z,69.28
2018-05-06T16:40:01.819Z,69.35
2018-05-06T16:42:29.435Z,70.03
2018-05-06T16:44:57.032Z,69.60
2018-05-06T16:47:24.661Z,69.26
2018-05-06T16:49:52.237Z,69.68
2018-05-06T16:52:19.914Z,69.47
2018-05-06T16:54:47.612Z,68.40
2018-05-06T16:57:15.355Z,69.74
2018-05-06T16:59:42.945Z,68.55
2018-05-06T17:02:10.660Z,66.38
2018-05-06T17:04:38.300Z,65.68
2018-05-06T17:07:05.893Z,66.29
2018-05-06T17:09:33.685Z,64.87
2018-05-06T17:12:01.337Z,65.42
2018-05-06T17:14:28.923Z,65.04
2018-05-06T17:16:56.681Z,63.13
2018-05-06T17:19:24.380Z,63.67
2018-05-06T17:21:52.012Z,62.15
2018-05-06T17:24:19.805Z,62.61
2018-05-06T17:26:47.409Z,61.92
2018-05-06T17:29:15.017Z,59.90
2018-05-06T17:31:42.773Z,59.73
2018-05-06T17:34:10.457Z,60.84
2018-05-06T17:36:38.045Z,60.84
2018-05-06T17:39:06.724Z,60.75
2018-05-06T17:41:34.390Z,60.62
2018-05-06T17:44:01.989Z,60.89
2018-05-06T17:46:29.659Z,60.18
2018-05-06T17:48:57.329Z,60.31
2018-05-06T17:51:24.915Z,59.12
2018-05-06T17:53:52.544Z,59.32
2018-05-06T17:56:20.135Z,59.22
2018-05-06T17:58:47.769Z,58.86
2018-05-06T18:01:15.431Z,59.70
2018-05-06T18:03:43.001Z,59.68
2018-05-06T18:06:10.645Z,60.31
2018-05-06T18:08:38.313Z,61.55
2018-05-06T18:11:05.956Z,61.09
2018-05-06T18:13:33.544Z,61.00
2018-05-06T18:16:01.242Z,61.00
2018-05-06T18:18:28.883Z,59.88
2018-05-06T18:20:56.605Z,59.90
2018-05-06T18:23:24.320Z,59.33
2018-05-06T18:25:51.907Z,60.18
2018-05-06T18:28:19.505Z,59.34
2018-05-06T18:30:47.223Z,60.93
2018-05-06T18:33:14.869Z,61.69
2018-05-06T18:35:42.476Z,61.46
2018-05-06T18:38:10.156Z,62.15
2018-05-06T18:40:37.730Z,63.11
2018-05-06T18:43:05.346Z,64.04
2018-05-06T18:45:32.992Z,62.39
2018-05-06T18:48:00.685Z,62.86
2018-05-06T18:50:28.300Z,64.34
2018-05-06T18:52:56.822Z,63.69
2018-05-06T18:55:24.467Z,64.10
2018-05-06T18:57:52.065Z,65.68
2018-05-06T19:00:19.732Z,66.27
2018-05-06T19:02:47.402Z,66.31
2018-05-06T19:05:14.969Z,65.84
2018-05-06T19:07:43.306Z,66.17
2018-05-06T19:10:11.883Z,66.22
2018-05-06T19:12:39.564Z,67.65
2018-05-06T19:15:07.242Z,67.09
2018-05-06T19:17:34.817Z,67.20
2018-05-06T19:20:02.404Z,67.06
2018-05-06T19:22:30.196Z,68.37
2018-05-06T19:24:57.870Z,67.43
2018-05-06T19:27:25.456Z,66.75
2018-05-06T19:29:53.084Z,65.78
2018-05-06T19:32:20.738Z,65.67
2018-05-06T19:34:49.247Z,64.88
2018-05-06T19:37:16.873Z,64.47
2018-05-06T19:39:45.273Z,64.58
2018-05-06T19:42:12.954Z,63.52
2018-05-06T19:44:40.583Z,63.64
2018-05-06T19:47:08.229Z,63.18
2018-05-06T19:49:35.809Z,62.31
2018-05-06T19:52:03.529Z,63.10
2018-05-06T19:54:31.111Z,63.04
2018-05-06T19:56:58.679Z,63.31
2018-05-06T19:59:26.373Z,63.04
2018-05-06T20:01:53.971Z,63.14
2018-05-06T20:04:21.603Z,63.32
2018-05-06T20:06:49.219Z,63.24
2018-05-06T20:09:16.793Z,63.24
2018-05-06T20:11:44.366Z,63.64
2018-05-06T20:14:12.011Z,63.50
2018-05-06T20:16:39.851Z,63.03
2018-05-06T20:19:07.508Z,62.46
2018-05-06T20:21:35.331Z,62.88
2018-05-06T20:24:03.141Z,62.36
2018-05-06T20:26:30.775Z,62.20
2018-05-06T20:28:58.464Z,61.96
2018-05-06T20:31:26.080Z,61.55
2018-05-06T20:33:53.699Z,61.34
2018-05-06T20:36:21.419Z,60.72
2018-05-06T20:38:50.012Z,60.95
2018-05-06T20:41:17.663Z,62.02
2018-05-06T20:43:46.022Z,61.42
2018-05-06T20:46:13.581Z,62.71
2018-05-06T20:48:41.163Z,63.15
2018-05-06T20:51:08.845Z,62.55
2018-05-06T20:53:36.499Z,63.49
2018-05-06T20:56:04.168Z,64.61
2018-05-06T20:58:31.880Z,65.26
2018-05-06T21:00:59.517Z,65.12
2018-05-06T21:03:27.098Z,66.01
2018-05-06T21:05:54.737Z,66.17
2018-05-06T21:08:22.310Z,66.51
2018-05-06T21:10:49.885Z,66.07
2018-05-06T21:13:17.510Z,66.48
2018-05-06T21:15:45.102Z,66.30
2018-05-06T21:18:12.735Z,67.13
2018-05-06T21:20:40.408Z,66.13
2018-05-06T21:23:07.991Z,67.01
2018-05-06T21:25:36.029Z,66.49
2018-05-06T21:28:03.677Z,65.89
2018-05-06T21:30:31.278Z,65.23
2018-05-06T21:32:58.882Z,62.84
2018-05-06T21:35:26.605Z,62.39
2018-05-06T21:37:54.179Z,61.45
2018-05-06T21:40:21.837Z,61.38
2018-05-06T21:42:49.546Z,60.25
2018-05-06T21:45:17.190Z,60.47
2018-05-06T21:47:44.772Z,59.93
2018-05-06T21:50:12.462Z,59.71
2018-05-06T21:52:40.040Z,59.49
2018-05-06T21:55:07.636Z,59.57
2018-05-06T21:57:35.370Z,59.19
2018-05-06T22:00:02.985Z,59.35
2018-05-06T22:02:30.628Z,59.63
2018-05-06T22:04:58.402Z,59.87
2018-05-06T22:07:26.053Z,60.76
2018-05-06T22:09:53.720Z,60.22
2018-05-06T22:12:21.460Z,60.61
2018-05-06T22:14:49.189Z,60.06
2018-05-06T22:17:16.841Z,60.75
2018-05-06T22:19:44.627Z,59.96
2018-05-06T22:22:12.196Z,60.21
2018-05-06T22:24:39.792Z,60.47
2018-05-06T22:27:07.559Z,60.21
2018-05-06T22:29:35.193Z,59.98
2018-05-06T22:32:02.859Z,60.45
2018-05-06T22:34:30.535Z,60.65
2018-05-06T22:36:58.177Z,60.75
2018-05-06T22:39:25.820Z,61.26
2018-05-06T22:41:53.447Z,60.73
2018-05-06T22:44:21.096Z,61.39
2018-05-06T22:46:48.684Z,61.19
2018-05-06T22:49:16.391Z,60.82
2018-05-06T22:51:43.991Z,60.70
2018-05-06T22:54:11.589Z,60.77
2018-05-06T22:56:39.220Z,60.73
2018-05-06T22:59:06.801Z,61.35
2018-05-06T23:01:34.428Z,60.87
2018-05-06T23:04:02.080Z,61.36
2018-05-06T23:06:29.703Z,61.43
2018-05-06T23:08:57.368Z,61.64
2018-05-06T23:11:25.090Z,61.29
2018-05-06T23:13:52.733Z,61.72
2018-05-06T23:16:20.402Z,61.62
2018-05-06T23:18:48.030Z,61.72
2018-05-06T23:21:15.672Z,61.69
2018-05-06T23:23:43.266Z,61.75
2018-05-06T23:26:10.984Z,62.01
2018-05-06T23:28:38.603Z,62.25
2018-05-06T23:31:06.231Z,62.27
2018-05-06T23:33:33.877Z,62.22
2018-05-06T23:36:01.552Z,62.58
2018-05-06T23:38:29.156Z,62.38
2018-05-06T23:40:56.876Z,61.92
2018-05-06T23:43:24.455Z,61.97
2018-05-06T23:45:54.034Z,62.00
2018-05-06T23:48:21.667Z,62.11
2018-05-06T23:50:49.239Z,62.39
2018-05-06T23:53:16.820Z,62.50
2018-05-06T23:55:44.532Z,62.64
2018-05-06T23:58:12.191Z,62.75
